createdAt,value
2023-04-01T00:04:13.376Z,99165.73
2023-04-01T00:09:40.902Z,99167.20
2023-04-01T00:15:06.603Z,99170.53
2023-04-01T00:20:34.192Z,99167.15
2023-04-01T00:25:59.916Z,99170.48
2023-04-01T00:31:29.232Z,99165.51
2023-04-01T00:36:55.082Z,99163.98
2023-04-01T00:42:23.259Z,99163.21
2023-04-01T00:47:50.491Z,99165.58
2023-04-01T00:53:17.051Z,99166.30
2023-04-01T00:58:45.195Z,99166.80
2023-04-01T01:04:01.158Z,99165.65
2023-04-01T01:09:39.696Z,99166.52
2023-04-01T01:15:21.689Z,99173.62
2023-04-01T01:21:01.920Z,99170.98
2023-04-01T01:26:53.054Z,99169.98
2023-04-01T01:32:26.352Z,99173.83
2023-04-01T01:37:54.955Z,99174.70
2023-04-01T01:43:25.234Z,99175.85
2023-04-01T01:48:53.171Z,99175.20
2023-04-01T01:54:19.117Z,99178.21
2023-04-01T01:59:46.072Z,99179.33
2023-04-01T02:05:13.816Z,99180.63
2023-04-01T02:10:45.491Z,99184.91
2023-04-01T02:16:15.031Z,99183.48
2023-04-01T02:21:42.625Z,99190.59
2023-04-01T02:27:09.946Z,99189.29
2023-04-01T02:32:36.188Z,99188.96
2023-04-01T02:38:03.419Z,99187.98
2023-04-01T02:43:29.095Z,99193.39
2023-04-01T02:48:55.110Z,99195.96
2023-04-01T02:54:21.025Z,99201.35
2023-04-01T02:59:46.779Z,99201.97
2023-04-01T03:05:13.077Z,99208.27
2023-04-01T03:10:38.755Z,99212.36
2023-04-01T03:16:04.798Z,99215.64
2023-04-01T03:21:39.876Z,99215.14
2023-04-01T03:27:05.622Z,99214.94
2023-04-01T03:32:31.343Z,99218.75
2023-04-01T03:37:57.121Z,99226.55
2023-04-01T03:43:22.852Z,99225.30
2023-04-01T03:48:48.628Z,99228.75
2023-04-01T03:54:14.330Z,99237.25
2023-04-01T03:59:40.068Z,99237.16
2023-04-01T04:05:05.819Z,99242.98
2023-04-01T04:10:32.032Z,99245.02
2023-04-01T04:15:57.709Z,99250.69
2023-04-01T04:21:25.250Z,99252.13
2023-04-01T04:26:51.022Z,99258.05
2023-04-01T04:32:16.771Z,99258.94
2023-04-01T04:37:42.606Z,99261.11
2023-04-01T04:48:47.808Z,99269.45
2023-04-01T04:54:13.482Z,99272.64
2023-04-01T04:59:39.198Z,99279.23
2023-04-01T05:05:05.051Z,99279.35
2023-04-01T05:10:31.886Z,99280.26
2023-04-01T05:15:57.795Z,99285.17
2023-04-01T05:21:24.133Z,99286.94
2023-04-01T05:26:49.819Z,99290.55
2023-04-01T05:32:15.529Z,99289.67
2023-04-01T05:37:41.380Z,99297.50
2023-04-01T05:43:07.181Z,99300.91
2023-04-01T05:48:32.955Z,99304.56
2023-04-01T05:53:58.684Z,99307.68
2023-04-01T05:59:24.372Z,99310.86
2023-04-01T06:04:54.712Z,99315.98
2023-04-01T06:10:21.057Z,99320.73
2023-04-01T06:15:57.663Z,99325.30
2023-04-01T06:21:34.129Z,99330.92
2023-04-01T06:27:06.822Z,99339.73
2023-04-01T06:32:57.669Z,99346.94
2023-04-01T06:38:45.142Z,99349.20
2023-04-01T06:44:20.102Z,99356.22
2023-04-01T06:49:57.700Z,99358.63
2023-04-01T06:55:36.592Z,99362.33
2023-04-01T07:01:05.881Z,99364.20
2023-04-01T07:06:37.473Z,99363.77
2023-04-01T07:12:03.659Z,99368.86
2023-04-01T07:17:36.364Z,99375.45
2023-04-01T07:23:05.811Z,99374.23
2023-04-01T07:28:39.979Z,99377.84
2023-04-01T07:34:14.533Z,99383.92
2023-04-01T07:39:52.727Z,99386.60
2023-04-01T07:45:30.594Z,99395.55
2023-04-01T07:51:10.878Z,99402.15
2023-04-01T07:56:48.160Z,99406.63
2023-04-01T08:02:24.410Z,99411.58
2023-04-01T08:07:57.622Z,99420.16
2023-04-01T08:13:34.729Z,99424.14
2023-04-01T08:19:09.080Z,99427.13
2023-04-01T08:24:47.933Z,99435.10
2023-04-01T08:30:19.883Z,99439.52
2023-04-01T08:35:52.187Z,99446.75
2023-04-01T08:41:48.393Z,99455.63
2023-04-01T08:47:30.767Z,99462.13
2023-04-01T08:53:03.526Z,99467.02
2023-04-01T08:58:47.397Z,99470.65
2023-04-01T09:04:35.632Z,99476.00
2023-04-01T09:10:22.447Z,99477.08
2023-04-01T09:16:11.632Z,99478.57
2023-04-01T09:22:05.876Z,99488.31
2023-04-01T09:27:39.912Z,99498.46
2023-04-01T09:33:30.828Z,99508.14
2023-04-01T09:39:09.679Z,99508.04
2023-04-01T09:44:41.207Z,99514.17
2023-04-01T09:50:24.846Z,99521.95
2023-04-01T09:56:08.550Z,99528.23
2023-04-01T10:02:04.382Z,99536.69
2023-04-01T10:08:13.687Z,99539.48
2023-04-01T10:14:10.426Z,99545.11
2023-04-01T10:20:01.414Z,99550.23
2023-04-01T10:25:49.625Z,99556.94
2023-04-01T10:31:39.990Z,99561.75
2023-04-01T10:37:14.714Z,99568.30
2023-04-01T10:43:19.765Z,99568.84
2023-04-01T10:49:19.418Z,99574.95
2023-04-01T10:55:09.692Z,99580.09
2023-04-01T11:00:53.151Z,99581.27
2023-04-01T11:07:09.305Z,99582.92
2023-04-01T11:13:06.091Z,99588.52
2023-04-01T11:18:57.389Z,99591.68
2023-04-01T11:24:51.417Z,99596.65
2023-04-01T11:30:28.863Z,99600.13
2023-04-01T11:36:30.214Z,99607.99
2023-04-01T11:42:03.170Z,99613.17
2023-04-01T11:47:49.350Z,99622.27
2023-04-01T11:53:32.057Z,99625.32
2023-04-01T11:59:25.850Z,99634.02
2023-04-01T12:05:11.079Z,99644.15
2023-04-01T12:10:47.854Z,99651.08
2023-04-01T12:16:59.385Z,99655.98
2023-04-01T12:23:01.605Z,99663.31
2023-04-01T12:28:39.339Z,99672.87
2023-04-01T12:34:30.832Z,99677.18
2023-04-01T12:40:23.684Z,99685.05
2023-04-01T12:45:54.449Z,99688.67
2023-04-01T12:51:29.201Z,99698.81
2023-04-01T12:57:11.268Z,99705.31
2023-04-01T13:02:51.119Z,99709.73
2023-04-01T13:08:26.380Z,99717.58
2023-04-01T13:14:29.189Z,99724.73
2023-04-01T13:20:06.611Z,99732.12
2023-04-01T13:25:42.366Z,99737.42
2023-04-01T13:31:17.748Z,99744.65
2023-04-01T13:36:50.231Z,99745.91
2023-04-01T13:42:34.211Z,99758.23
2023-04-01T13:48:40.738Z,99760.63
2023-04-01T13:54:38.350Z,99771.39
2023-04-01T14:00:27.397Z,99777.11
2023-04-01T14:06:08.684Z,99784.02
2023-04-01T14:11:45.939Z,99784.69
2023-04-01T14:17:41.126Z,99795.02
2023-04-01T14:23:21.592Z,99801.02
2023-04-01T14:28:47.560Z,99805.64
2023-04-01T14:34:27.753Z,99809.49
2023-04-01T14:40:24.803Z,99818.13
2023-04-01T14:46:22.756Z,99827.31
2023-04-01T14:51:55.495Z,99838.65
2023-04-01T14:57:33.472Z,99846.61
2023-04-01T15:03:15.185Z,99854.29
2023-04-01T15:08:44.552Z,99859.31
2023-04-01T15:14:45.136Z,99866.04
2023-04-01T15:20:30.554Z,99875.27
2023-04-01T15:26:12.461Z,99883.83
2023-04-01T15:31:42.981Z,99890.02
2023-04-01T15:37:17.798Z,99893.08
2023-04-01T15:42:54.758Z,99896.37
2023-04-01T15:48:27.765Z,99905.79
2023-04-01T15:54:18.312Z,99913.88
2023-04-01T16:00:01.134Z,99922.84
2023-04-01T16:05:41.447Z,99934.46
2023-04-01T16:11:20.806Z,99942.15
2023-04-01T16:17:01.788Z,99946.65
2023-04-01T16:22:34.583Z,99956.93
2023-04-01T16:28:09.851Z,99968.48
2023-04-01T16:33:43.029Z,99982.98
2023-04-01T16:39:16.645Z,99992.67
2023-04-01T16:44:47.541Z,100001.16
2023-04-01T16:50:20.868Z,100009.54
2023-04-01T16:56:01.496Z,100019.48
2023-04-01T17:01:33.494Z,100033.05
2023-04-01T17:07:07.906Z,100042.31
2023-04-01T17:12:42.629Z,100051.61
2023-04-01T17:18:15.084Z,100063.14
2023-04-01T17:23:48.758Z,100074.02
2023-04-01T17:29:19.729Z,100087.98
2023-04-01T17:35:07.987Z,100094.30
2023-04-01T17:40:55.319Z,100107.02
2023-04-01T17:46:30.805Z,100112.29
2023-04-01T17:52:04.711Z,100121.44
2023-04-01T17:57:54.087Z,100138.85
2023-04-01T18:03:33.081Z,100141.59
2023-04-01T18:09:19.054Z,100157.07
2023-04-01T18:15:07.791Z,100167.94
2023-04-01T18:20:46.882Z,100179.92
2023-04-01T18:26:24.185Z,100188.86
2023-04-01T18:31:58.216Z,100198.88
2023-04-01T18:37:38.516Z,100212.39
2023-04-01T18:43:09.210Z,100225.79
2023-04-01T18:49:04.599Z,100231.98
2023-04-01T18:54:40.907Z,100243.48
2023-04-01T19:00:14.709Z,100261.44
2023-04-01T19:11:52.407Z,100279.11
2023-04-01T19:17:28.437Z,100283.64
2023-04-01T19:23:11.528Z,100287.45
2023-04-01T19:28:48.911Z,100287.91
2023-04-01T19:34:34.238Z,100295.83
2023-04-01T19:40:12.403Z,100306.59
2023-04-01T19:45:52.114Z,100316.98
2023-04-01T19:51:27.391Z,100327.18
2023-04-01T19:57:03.704Z,100338.80
2023-04-01T20:02:56.438Z,100348.64
2023-04-01T20:08:28.684Z,100356.00
2023-04-01T20:13:56.705Z,100369.95
2023-04-01T20:19:25.052Z,100384.96
2023-04-01T20:24:56.068Z,100396.00
2023-04-01T20:31:00.091Z,100409.04
2023-04-01T20:36:37.204Z,100417.11
2023-04-01T20:42:18.287Z,100428.31
2023-04-01T20:48:10.382Z,100436.52
2023-04-01T20:53:48.219Z,100442.31
2023-04-01T21:05:49.370Z,100461.41
2023-04-01T21:11:22.870Z,100468.35
2023-04-01T21:17:02.972Z,100479.33
2023-04-01T21:22:56.975Z,100486.92
2023-04-01T21:28:45.017Z,100497.96
2023-04-01T21:34:52.963Z,100505.19
2023-04-01T21:40:37.927Z,100520.51
2023-04-01T21:46:29.942Z,100529.44
2023-04-01T21:52:26.919Z,100534.83
2023-04-01T21:58:18.792Z,100544.68
2023-04-01T22:04:08.817Z,100552.92
2023-04-01T22:09:46.734Z,100561.16
2023-04-01T22:15:19.593Z,100570.40
2023-04-01T22:20:55.605Z,100576.50
2023-04-01T22:26:27.492Z,100588.56
2023-04-01T22:32:05.044Z,100594.36
2023-04-01T22:43:27.593Z,100609.05
2023-04-01T22:49:02.847Z,100617.87
2023-04-01T22:54:37.429Z,100625.45
2023-04-01T23:00:07.953Z,100628.52
2023-04-01T23:05:38.815Z,100635.27
2023-04-01T23:11:09.146Z,100642.13
2023-04-01T23:16:35.793Z,100648.84
2023-04-01T23:22:05.963Z,100654.07
2023-04-01T23:27:41.094Z,100660.61
2023-04-01T23:33:07.403Z,100670.23
2023-04-01T23:38:33.155Z,100674.88
2023-04-01T23:44:02.581Z,100682.65
2023-04-01T23:49:35.171Z,100688.58
2023-04-01T23:55:02.574Z,100700.09
